Darstellungsparameter: Aktuell verwendete Einstellungen:
Skalierung der Graphiken ... ?
xyx+y,   Skalierungsfaktor:      Skalierung: Modus: x, Faktor: 1
Darstellungszeitraum ... ?
Vom - - bis: - -   Zeitraum: 24.01.2021 - 24.01.2021
Min/Max/Avg-Anzeige ... ?
Zeige MMA aktuell
Zeige MMA Monat
Zeige MMA alles
Zeige --A aktuell
Zeige --A Monat
Zeige --A alles
Keine MMA-Anzeige
MMA:
Keine MMA-Graphiken
MMA-Basis: 24.01.2021 - 24.01.2021
Quicknavigation für Darstellung... ?
Tage:      1T, 2T, 3T, 5T -1T -2T -3T -5T +1T +2T +3T +5T
Wochen: 1W, 2W, 3W -1W -2W -3W +1W +2W +3W
Monate: 1M, 3M, 6M -1M -3M -6M +1M +3M +6M
Jahre:    1J, 3J, 5J, 10J -1J -3J -5J -10J +1J +3J +5J +10J
Nutze für die Darstellung ... ?
Originaldaten oder Mittelwerte auf ...
Stundenbasis Tagesbasis Wochenbasis
Monatsbasis Jahresbasis      Datenbasis: Original-Daten
Darstellen als:
Statistik (Auto) Statistik J:M      Darstellung:
Zur Graphik,    zurück zur Übersicht aller Sensoren.
 
Tabellarische Datenbersicht: ?
 
Sensor: Nr:Datum:Temp:Feuchte:Taupunkt:
Aussen-T/F 1 24-01-2021 00:00:00 3.6 C 95 % 2.88 C
2 24-01-2021 00:05:00 3.6 C 95 % 2.88 C
3 24-01-2021 00:10:00 3.6 C 95 % 2.88 C
4 24-01-2021 00:15:00 3.6 C 95 % 2.88 C
5 24-01-2021 00:20:00 3.6 C 95 % 2.88 C
6 24-01-2021 00:25:00 3.6 C 95 % 2.88 C
7 24-01-2021 00:30:00 3.6 C 96 % 3.02 C
8 24-01-2021 00:35:00 3.6 C 96 % 3.02 C
9 24-01-2021 00:40:00 3.6 C 96 % 3.02 C
10 24-01-2021 00:45:00 3.6 C 96 % 3.02 C
11 24-01-2021 00:50:00 3.6 C 96 % 3.02 C
12 24-01-2021 00:55:00 3.6 C 96 % 3.02 C
13 24-01-2021 01:00:00 3.6 C 96 % 3.02 C
14 24-01-2021 01:05:00 3.5 C 96 % 2.92 C
15 24-01-2021 01:10:00 3.5 C 95 % 2.78 C
16 24-01-2021 01:15:00 3.5 C 96 % 2.92 C
17 24-01-2021 01:20:00 3.4 C 95 % 2.68 C
18 24-01-2021 01:25:00 3.4 C 96 % 2.82 C
19 24-01-2021 01:30:00 3.4 C 96 % 2.82 C
20 24-01-2021 01:35:00 3.4 C 96 % 2.82 C
21 24-01-2021 01:40:00 3.4 C 96 % 2.82 C
22 24-01-2021 01:45:00 3.3 C 96 % 2.72 C
23 24-01-2021 01:50:00 3.2 C 95 % 2.48 C
24 24-01-2021 01:55:00 3.1 C 95 % 2.38 C
25 24-01-2021 02:00:00 2.8 C 95 % 2.08 C
Sensor: Nr:Datum:Temp:Feuchte:Taupunkt:
Aussen-T/F 26 24-01-2021 02:05:00 2.7 C 95 % 1.98 C
27 24-01-2021 02:10:00 2.6 C 95 % 1.88 C
28 24-01-2021 02:15:00 2.4 C 95 % 1.68 C
29 24-01-2021 02:20:00 2.4 C 95 % 1.68 C
30 24-01-2021 02:25:00 2.3 C 95 % 1.58 C
31 24-01-2021 02:30:00 2.2 C 95 % 1.48 C
32 24-01-2021 02:35:00 2.1 C 95 % 1.38 C
33 24-01-2021 02:40:00 2 C 95 % 1.29 C
34 24-01-2021 02:45:00 1.9 C 95 % 1.19 C
35 24-01-2021 02:50:00 2 C 95 % 1.29 C
36 24-01-2021 02:55:00 2 C 96 % 1.43 C
37 24-01-2021 03:00:00 2.1 C 96 % 1.53 C
38 24-01-2021 03:05:00 2.1 C 96 % 1.53 C
39 24-01-2021 03:10:00 2.2 C 96 % 1.63 C
40 24-01-2021 03:15:00 2.2 C 96 % 1.63 C
41 24-01-2021 03:20:00 2.2 C 96 % 1.63 C
42 24-01-2021 03:25:00 2.2 C 96 % 1.63 C
43 24-01-2021 03:30:00 2.2 C 96 % 1.63 C
44 24-01-2021 03:35:00 2.2 C 96 % 1.63 C
45 24-01-2021 03:40:00 2.2 C 96 % 1.63 C
46 24-01-2021 03:45:00 2.2 C 96 % 1.63 C
47 24-01-2021 03:50:00 2.1 C 95 % 1.38 C
48 24-01-2021 03:55:00 2.1 C 95 % 1.38 C
49 24-01-2021 04:00:00 2.1 C 95 % 1.38 C
50 24-01-2021 04:05:00 2.1 C 95 % 1.38 C
Sensor: Nr:Datum:Temp:Feuchte:Taupunkt:
Aussen-T/F 51 24-01-2021 04:10:00 2.1 C 95 % 1.38 C
52 24-01-2021 04:15:00 2.1 C 94 % 1.24 C
53 24-01-2021 04:20:00 2 C 94 % 1.14 C
54 24-01-2021 04:25:00 2 C 94 % 1.14 C
55 24-01-2021 04:30:00 2 C 94 % 1.14 C
56 24-01-2021 04:35:00 2.1 C 93 % 1.09 C
57 24-01-2021 04:40:00 2.1 C 93 % 1.09 C
58 24-01-2021 04:45:00 2.1 C 92 % 0.94 C
59 24-01-2021 04:50:00 2.2 C 92 % 1.04 C
60 24-01-2021 04:55:00 2.2 C 92 % 1.04 C
61 24-01-2021 05:00:00 2.2 C 92 % 1.04 C
62 24-01-2021 05:05:00 2.2 C 92 % 1.04 C
63 24-01-2021 05:10:00 2.2 C 92 % 1.04 C
64 24-01-2021 05:15:00 2.2 C 92 % 1.04 C
65 24-01-2021 05:20:00 2.2 C 92 % 1.04 C
66 24-01-2021 05:25:00 2.2 C 92 % 1.04 C
67 24-01-2021 05:30:00 2.2 C 92 % 1.04 C
68 24-01-2021 05:35:00 2.2 C 92 % 1.04 C
69 24-01-2021 05:40:00 2.2 C 92 % 1.04 C
70 24-01-2021 05:45:00 2.2 C 92 % 1.04 C
71 24-01-2021 05:50:00 2.3 C 92 % 1.14 C
72 24-01-2021 05:55:00 2.3 C 92 % 1.14 C
73 24-01-2021 06:00:00 2.3 C 92 % 1.14 C
74 24-01-2021 06:05:00 2.3 C 92 % 1.14 C
75 24-01-2021 06:10:00 2.3 C 91 % 0.99 C
Sensor: Nr:Datum:Temp:Feuchte:Taupunkt:
Aussen-T/F 76 24-01-2021 06:15:00 2.3 C 91 % 0.99 C
77 24-01-2021 06:20:00 2.3 C 91 % 0.99 C
78 24-01-2021 06:25:00 2.3 C 92 % 1.14 C
79 24-01-2021 06:30:00 2.3 C 92 % 1.14 C
80 24-01-2021 06:35:00 2.3 C 92 % 1.14 C
81 24-01-2021 06:40:00 2.3 C 92 % 1.14 C
82 24-01-2021 06:45:00 2.3 C 92 % 1.14 C
83 24-01-2021 06:50:00 2.3 C 92 % 1.14 C
84 24-01-2021 06:55:00 2.2 C 92 % 1.04 C
85 24-01-2021 07:00:00 2.2 C 92 % 1.04 C
86 24-01-2021 07:05:00 2.2 C 92 % 1.04 C
87 24-01-2021 07:10:00 2.2 C 92 % 1.04 C
88 24-01-2021 07:15:00 2.1 C 92 % 0.94 C
89 24-01-2021 07:20:00 2.1 C 92 % 0.94 C
90 24-01-2021 07:25:00 2.1 C 93 % 1.09 C
91 24-01-2021 07:30:00 2 C 93 % 0.99 C
92 24-01-2021 07:35:00 2 C 93 % 0.99 C
93 24-01-2021 07:40:00 2 C 93 % 0.99 C
94 24-01-2021 07:45:00 2 C 93 % 0.99 C
95 24-01-2021 07:50:00 2 C 93 % 0.99 C
96 24-01-2021 07:55:00 2 C 93 % 0.99 C
97 24-01-2021 08:00:00 2 C 93 % 0.99 C
98 24-01-2021 08:05:00 2 C 93 % 0.99 C
99 24-01-2021 08:10:00 1.9 C 94 % 1.04 C
100 24-01-2021 08:15:00 1.9 C 94 % 1.04 C
Sensor: Nr:Datum:Temp:Feuchte:Taupunkt:
Aussen-T/F 101 24-01-2021 08:20:00 1.9 C 94 % 1.04 C
102 24-01-2021 08:25:00 1.8 C 94 % 0.94 C
103 24-01-2021 08:30:00 1.8 C 94 % 0.94 C
104 24-01-2021 08:35:00 1.8 C 94 % 0.94 C
105 24-01-2021 08:40:00 1.8 C 94 % 0.94 C
106 24-01-2021 08:45:00 1.8 C 94 % 0.94 C
107 24-01-2021 08:50:00 1.7 C 94 % 0.84 C
108 24-01-2021 08:55:00 1.7 C 94 % 0.84 C
109 24-01-2021 09:00:00 1.7 C 94 % 0.84 C
110 24-01-2021 09:05:00 1.7 C 95 % 0.99 C
111 24-01-2021 09:10:00 1.7 C 95 % 0.99 C
112 24-01-2021 09:15:00 1.8 C 95 % 1.09 C
113 24-01-2021 09:20:00 1.8 C 95 % 1.09 C
114 24-01-2021 09:25:00 1.8 C 95 % 1.09 C
115 24-01-2021 09:30:00 1.8 C 95 % 1.09 C
116 24-01-2021 09:35:00 1.8 C 95 % 1.09 C
117 24-01-2021 09:40:00 1.9 C 95 % 1.19 C
118 24-01-2021 09:45:00 1.9 C 95 % 1.19 C
119 24-01-2021 09:50:00 2 C 95 % 1.29 C
120 24-01-2021 09:55:00 2.1 C 95 % 1.38 C
121 24-01-2021 10:00:00 2.1 C 95 % 1.38 C
122 24-01-2021 10:05:00 2.1 C 95 % 1.38 C
123 24-01-2021 10:10:00 2.2 C 95 % 1.48 C
124 24-01-2021 10:15:00 2.2 C 95 % 1.48 C
125 24-01-2021 10:20:00 2.3 C 95 % 1.58 C
Sensor: Nr:Datum:Temp:Feuchte:Taupunkt:
Aussen-T/F 126 24-01-2021 10:25:00 2.3 C 95 % 1.58 C
127 24-01-2021 10:30:00 2.4 C 95 % 1.68 C
128 24-01-2021 10:35:00 2.4 C 95 % 1.68 C
129 24-01-2021 10:40:00 2.4 C 95 % 1.68 C
130 24-01-2021 10:45:00 2.5 C 95 % 1.78 C
131 24-01-2021 10:50:00 2.5 C 95 % 1.78 C
132 24-01-2021 10:55:00 2.6 C 95 % 1.88 C
133 24-01-2021 11:00:00 2.6 C 95 % 1.88 C
134 24-01-2021 11:05:00 2.6 C 95 % 1.88 C
135 24-01-2021 11:10:00 2.6 C 95 % 1.88 C
136 24-01-2021 11:15:00 2.6 C 95 % 1.88 C
137 24-01-2021 11:20:00 2.7 C 95 % 1.98 C
138 24-01-2021 11:25:00 2.7 C 95 % 1.98 C
139 24-01-2021 11:30:00 2.7 C 95 % 1.98 C
140 24-01-2021 11:35:00 2.7 C 95 % 1.98 C
141 24-01-2021 11:40:00 2.7 C 94 % 1.83 C
142 24-01-2021 11:45:00 2.7 C 95 % 1.98 C
143 24-01-2021 11:50:00 2.8 C 94 % 1.93 C
144 24-01-2021 11:55:00 2.8 C 94 % 1.93 C
145 24-01-2021 12:00:00 2.7 C 94 % 1.83 C
146 24-01-2021 12:05:00 2.8 C 94 % 1.93 C
147 24-01-2021 12:10:00 2.8 C 95 % 2.08 C
148 24-01-2021 12:15:00 2.8 C 94 % 1.93 C
149 24-01-2021 12:20:00 2.9 C 94 % 2.03 C
150 24-01-2021 12:25:00 2.9 C 94 % 2.03 C
Sensor: Nr:Datum:Temp:Feuchte:Taupunkt:
Aussen-T/F 151 24-01-2021 12:30:00 3 C 94 % 2.13 C
152 24-01-2021 12:35:00 3 C 93 % 1.98 C
153 24-01-2021 12:40:00 3 C 92 % 1.83 C
154 24-01-2021 12:45:00 3.1 C 92 % 1.93 C
155 24-01-2021 12:50:00 3.2 C 92 % 2.03 C
156 24-01-2021 12:55:00 3.3 C 91 % 1.98 C
157 24-01-2021 13:00:00 3.4 C 90 % 1.92 C
158 24-01-2021 13:05:00 3.6 C 90 % 2.12 C
159 24-01-2021 13:10:00 3.6 C 89 % 1.96 C
160 24-01-2021 13:15:00 3.6 C 89 % 1.96 C
161 24-01-2021 13:20:00 3.6 C 89 % 1.96 C
162 24-01-2021 13:25:00 3.7 C 89 % 2.06 C
163 24-01-2021 13:30:00 3.7 C 88 % 1.9 C
164 24-01-2021 13:35:00 3.7 C 88 % 1.9 C
165 24-01-2021 13:40:00 3.7 C 88 % 1.9 C
166 24-01-2021 13:45:00 3.7 C 88 % 1.9 C
167 24-01-2021 13:50:00 3.8 C 88 % 2 C
168 24-01-2021 13:55:00 3.8 C 88 % 2 C
169 24-01-2021 14:00:00 3.9 C 88 % 2.1 C
170 24-01-2021 14:05:00 3.9 C 87 % 1.94 C
171 24-01-2021 14:10:00 3.8 C 87 % 1.84 C
172 24-01-2021 14:15:00 3.9 C 87 % 1.94 C
173 24-01-2021 14:20:00 3.9 C 87 % 1.94 C
174 24-01-2021 14:25:00 3.9 C 87 % 1.94 C
175 24-01-2021 14:30:00 3.8 C 86 % 1.68 C
Sensor: Nr:Datum:Temp:Feuchte:Taupunkt:
Aussen-T/F 176 24-01-2021 14:35:00 3.9 C 86 % 1.78 C
177 24-01-2021 14:40:00 3.8 C 85 % 1.52 C
178 24-01-2021 14:45:00 3.8 C 84 % 1.35 C
179 24-01-2021 14:50:00 3.8 C 83 % 1.19 C
180 24-01-2021 14:55:00 3.8 C 85 % 1.52 C
181 24-01-2021 15:00:00 3.8 C 84 % 1.35 C
182 24-01-2021 15:05:00 3.8 C 84 % 1.35 C
183 24-01-2021 15:10:00 3.8 C 83 % 1.19 C
184 24-01-2021 15:15:00 3.8 C 84 % 1.35 C
185 24-01-2021 15:20:00 3.8 C 84 % 1.35 C
186 24-01-2021 15:25:00 3.8 C 83 % 1.19 C
187 24-01-2021 15:30:00 3.8 C 83 % 1.19 C
188 24-01-2021 15:35:00 3.8 C 83 % 1.19 C
189 24-01-2021 15:40:00 3.8 C 83 % 1.19 C
190 24-01-2021 15:45:00 3.8 C 83 % 1.19 C
191 24-01-2021 15:50:00 3.7 C 83 % 1.09 C
192 24-01-2021 15:55:00 3.7 C 84 % 1.25 C
193 24-01-2021 16:00:00 3.6 C 83 % 0.99 C
194 24-01-2021 16:05:00 3.6 C 82 % 0.82 C
195 24-01-2021 16:10:00 3.6 C 83 % 0.99 C
196 24-01-2021 16:15:00 3.4 C 83 % 0.79 C
197 24-01-2021 16:20:00 3.4 C 83 % 0.79 C
198 24-01-2021 16:25:00 3.3 C 83 % 0.7 C
199 24-01-2021 16:30:00 3.3 C 84 % 0.86 C
200 24-01-2021 16:35:00 3.2 C 84 % 0.76 C
Sensor: Nr:Datum:Temp:Feuchte:Taupunkt:
Aussen-T/F 201 24-01-2021 16:40:00 3.2 C 84 % 0.76 C
202 24-01-2021 16:45:00 3.1 C 84 % 0.67 C
203 24-01-2021 16:50:00 3 C 84 % 0.57 C
204 24-01-2021 16:55:00 2.8 C 84 % 0.37 C
205 24-01-2021 17:00:00 2.7 C 84 % 0.27 C
206 24-01-2021 17:05:00 2.6 C 84 % 0.18 C
207 24-01-2021 17:10:00 2.4 C 85 % 0.14 C
208 24-01-2021 17:15:00 2.3 C 85 % 0.04 C
209 24-01-2021 17:20:00 2.2 C 85 % -0.05 C
210 24-01-2021 17:25:00 2.1 C 86 % 0.01 C
211 24-01-2021 17:30:00 1.9 C 85 % -0.35 C
212 24-01-2021 17:35:00 1.8 C 85 % -0.45 C
213 24-01-2021 17:40:00 1.8 C 85 % -0.45 C
214 24-01-2021 17:45:00 1.7 C 85 % -0.54 C
215 24-01-2021 17:50:00 1.7 C 85 % -0.54 C
216 24-01-2021 17:55:00 1.6 C 86 % -0.48 C
217 24-01-2021 18:00:00 1.4 C 86 % -0.68 C
218 24-01-2021 18:05:00 1.3 C 87 % -0.62 C
219 24-01-2021 18:10:00 1.2 C 87 % -0.72 C
220 24-01-2021 18:15:00 1.1 C 88 % -0.66 C
221 24-01-2021 18:20:00 0.9 C 88 % -0.86 C
222 24-01-2021 18:25:00 0.9 C 88 % -0.86 C
223 24-01-2021 18:30:00 0.8 C 89 % -0.8 C
224 24-01-2021 18:35:00 0.7 C 89 % -0.9 C
225 24-01-2021 18:40:00 0.7 C 90 % -0.75 C
Sensor: Nr:Datum:Temp:Feuchte:Taupunkt:
Aussen-T/F 226 24-01-2021 18:45:00 0.6 C 90 % -0.85 C
227 24-01-2021 18:50:00 0.5 C 90 % -0.95 C
228 24-01-2021 18:55:00 0.4 C 90 % -1.04 C
229 24-01-2021 19:00:00 0.3 C 91 % -0.99 C
230 24-01-2021 19:05:00 0.3 C 91 % -0.99 C
231 24-01-2021 19:10:00 0.2 C 91 % -1.09 C
232 24-01-2021 19:15:00 0.2 C 91 % -1.09 C
233 24-01-2021 19:20:00 0.1 C 91 % -1.19 C
234 24-01-2021 19:25:00 0.1 C 92 % -1.04 C
235 24-01-2021 19:30:00 0 C 92 % -1.14 C
236 24-01-2021 19:35:00 0 C 92 % -1.14 C
237 24-01-2021 19:40:00 0 C 92 % -1.14 C
238 24-01-2021 19:45:00 -0.1 C 92 % -1.24 C
239 24-01-2021 19:50:00 -0.1 C 93 % -1.09 C
240 24-01-2021 19:55:00 -0.1 C 93 % -1.09 C
241 24-01-2021 20:00:00 -0.1 C 93 % -1.09 C
242 24-01-2021 20:05:00 -0.1 C 93 % -1.09 C
243 24-01-2021 20:10:00 -0.1 C 93 % -1.09 C
244 24-01-2021 20:15:00 -0.1 C 93 % -1.09 C
245 24-01-2021 20:20:00 -0.1 C 93 % -1.09 C
246 24-01-2021 20:25:00 -0.2 C 93 % -1.19 C
247 24-01-2021 20:30:00 -0.2 C 93 % -1.19 C
248 24-01-2021 20:35:00 -0.2 C 93 % -1.19 C
249 24-01-2021 20:40:00 -0.1 C 93 % -1.09 C
250 24-01-2021 20:45:00 -0.1 C 94 % -0.95 C
Sensor: Nr:Datum:Temp:Feuchte:Taupunkt:
Aussen-T/F 251 24-01-2021 20:50:00 -0.1 C 94 % -0.95 C
252 24-01-2021 20:55:00 -0.1 C 94 % -0.95 C
253 24-01-2021 21:00:00 -0.1 C 94 % -0.95 C
254 24-01-2021 21:05:00 -0.1 C 94 % -0.95 C
255 24-01-2021 21:10:00 -0.1 C 94 % -0.95 C
256 24-01-2021 21:15:00 -0.1 C 94 % -0.95 C
257 24-01-2021 21:20:00 -0.1 C 94 % -0.95 C
258 24-01-2021 21:25:00 0 C 94 % -0.85 C
259 24-01-2021 21:30:00 0 C 94 % -0.85 C
260 24-01-2021 21:35:00 0.1 C 94 % -0.75 C
261 24-01-2021 21:40:00 0.2 C 94 % -0.65 C
262 24-01-2021 21:45:00 0.2 C 94 % -0.65 C
263 24-01-2021 21:50:00 0.2 C 94 % -0.65 C
264 24-01-2021 21:55:00 0.2 C 94 % -0.65 C
265 24-01-2021 22:00:00 0.2 C 94 % -0.65 C
266 24-01-2021 22:05:00 0.2 C 94 % -0.65 C
267 24-01-2021 22:10:00 0.2 C 94 % -0.65 C
268 24-01-2021 22:15:00 0.3 C 94 % -0.55 C
269 24-01-2021 22:20:00 0.3 C 94 % -0.55 C
270 24-01-2021 22:25:00 0.3 C 93 % -0.7 C
271 24-01-2021 22:30:00 0.5 C 93 % -0.5 C
272 24-01-2021 22:35:00 0.7 C 92 % -0.45 C
273 24-01-2021 22:40:00 0.8 C 91 % -0.5 C
274 24-01-2021 22:45:00 0.8 C 91 % -0.5 C
275 24-01-2021 22:50:00 0.8 C 91 % -0.5 C
Sensor: Nr:Datum:Temp:Feuchte:Taupunkt:
Aussen-T/F 276 24-01-2021 22:55:00 0.9 C 90 % -0.55 C
277 24-01-2021 23:00:00 1.1 C 89 % -0.51 C
278 24-01-2021 23:05:00 1.1 C 89 % -0.51 C
279 24-01-2021 23:10:00 1.2 C 89 % -0.41 C
280 24-01-2021 23:15:00 1.2 C 88 % -0.56 C
281 24-01-2021 23:20:00 1.2 C 88 % -0.56 C
282 24-01-2021 23:25:00 1.3 C 88 % -0.46 C
283 24-01-2021 23:30:00 1.3 C 88 % -0.46 C
284 24-01-2021 23:35:00 1.4 C 88 % -0.36 C
285 24-01-2021 23:40:00 1.4 C 88 % -0.36 C
286 24-01-2021 23:45:00 1.4 C 88 % -0.36 C
287 24-01-2021 23:50:00 1.4 C 88 % -0.36 C
288 24-01-2021 23:55:00 1.3 C 89 % -0.31 C

Legende:
   Min
   Max


Maximal/Minimal-Werte vom 24.01.2021 - 24.01.2021

Sensor Min Max Avg
Temp
(Aussen-T/F)
-0.2 °C
24-01-2021  20:25:00
3.9 °C
24-01-2021  14:00:00
2.13 °C
Feuchte
(Aussen-T/F)
82 %
24-01-2021  16:05:00
96 %
24-01-2021  00:30:00
91.61 %
Taupunkt
(Aussen-T/F)
-1.24 C
24-01-2021  19:45:00
3.02 C
24-01-2021  00:30:00
0.89 C

Die Daten stammen von einer Davis Vantage Pro 2 Wetter-Station und werden unter Linux mit der Software wview2wettercgi und aufbereitet. Alle Angaben erfolgen ohne Gewähr für ihre Vollständigkeit oder Richtigkeit.
Kontakt: Rainer Krienke krienke@uni-koblenz.de . Meine Webseiten an der Uni Koblenz oder privat.
Version: $Revision: 0.78 $